createdAt,value
2019-01-12T00:02:15.999Z,14.53
2019-01-12T00:04:45.241Z,14.40
2019-01-12T00:07:14.544Z,14.60
2019-01-12T00:09:43.866Z,13.83
2019-01-12T00:12:13.530Z,14.00
2019-01-12T00:14:42.852Z,11.27
2019-01-12T00:17:12.168Z,12.87
2019-01-12T00:19:41.512Z,10.30
2019-01-12T00:22:10.781Z,13.83
2019-01-12T00:24:40.085Z,9.97
2019-01-12T00:27:09.631Z,11.27
2019-01-12T00:29:38.979Z,8.90
2019-01-12T00:32:08.200Z,10.27
2019-01-12T00:34:37.526Z,13.13
2019-01-12T00:37:06.856Z,12.33
2019-01-12T00:39:36.190Z,13.67
2019-01-12T00:42:05.422Z,11.57
2019-01-12T00:44:34.700Z,10.03
2019-01-12T00:47:03.955Z,11.53
2019-01-12T00:49:33.253Z,12.93
2019-01-12T00:52:02.447Z,11.07
2019-01-12T00:54:38.345Z,13.40
2019-01-12T00:57:02.617Z,12.27
2019-01-12T00:59:31.779Z,12.83
2019-01-12T01:02:01.058Z,12.67
2019-01-12T01:04:30.373Z,12.07
2019-01-12T01:06:59.598Z,12.13
2019-01-12T01:09:28.885Z,11.67
2019-01-12T01:11:58.176Z,9.70
2019-01-12T01:14:27.509Z,12.03
2019-01-12T01:16:56.783Z,10.43
2019-01-12T01:19:26.106Z,8.33
2019-01-12T01:21:55.538Z,10.83
2019-01-12T01:24:24.777Z,11.27
2019-01-12T01:26:54.012Z,10.17
2019-01-12T01:29:23.288Z,10.37
2019-01-12T01:31:52.507Z,10.37
2019-01-12T01:34:21.813Z,9.47
2019-01-12T01:36:51.132Z,11.73
2019-01-12T01:39:20.393Z,9.30
2019-01-12T01:41:49.677Z,10.20
2019-01-12T01:44:18.874Z,11.70
2019-01-12T01:46:48.136Z,8.90
2019-01-12T01:49:17.506Z,10.47
2019-01-12T01:51:46.737Z,9.83
2019-01-12T01:54:16.009Z,10.07
2019-01-12T01:56:45.199Z,10.30
2019-01-12T01:59:14.487Z,10.00
2019-01-12T02:01:43.767Z,9.43
2019-01-12T02:04:13.252Z,9.37
2019-01-12T02:06:42.562Z,10.17
2019-01-12T02:09:11.832Z,10.60
2019-01-12T02:11:41.043Z,10.90
2019-01-12T02:14:10.309Z,10.50
2019-01-12T02:16:39.521Z,11.07
2019-01-12T02:19:08.866Z,12.13
2019-01-12T02:21:38.072Z,11.70
2019-01-12T02:24:07.482Z,11.67
2019-01-12T02:26:36.723Z,11.10
2019-01-12T02:29:06.108Z,10.43
2019-01-12T02:31:35.394Z,10.07
2019-01-12T02:34:04.617Z,10.97
2019-01-12T02:36:34.176Z,9.90
2019-01-12T02:39:05.221Z,9.23
2019-01-12T02:41:34.585Z,8.80
2019-01-12T02:44:03.896Z,9.47
2019-01-12T02:46:33.173Z,10.00
2019-01-12T02:49:02.423Z,6.70
2019-01-12T02:51:31.658Z,9.17
2019-01-12T02:54:00.881Z,10.13
2019-01-12T02:56:30.268Z,9.30
2019-01-12T02:58:59.462Z,9.00
2019-01-12T03:01:28.719Z,9.27
2019-01-12T03:03:57.964Z,9.53
2019-01-12T03:06:27.266Z,9.30
2019-01-12T03:08:56.510Z,9.87
2019-01-12T03:11:25.797Z,9.37
2019-01-12T03:13:54.984Z,9.57
2019-01-12T03:16:24.192Z,8.57
2019-01-12T03:18:53.370Z,8.03
2019-01-12T03:21:22.607Z,8.57
2019-01-12T03:23:51.808Z,8.00
2019-01-12T03:26:21.043Z,7.87
2019-01-12T03:28:50.366Z,7.23
2019-01-12T03:31:19.875Z,5.47
2019-01-12T03:33:49.219Z,7.03
2019-01-12T03:36:18.546Z,7.00
2019-01-12T03:38:47.754Z,5.30
2019-01-12T03:41:16.956Z,5.70
2019-01-12T03:43:46.251Z,5.83
2019-01-12T03:46:15.497Z,7.50
2019-01-12T03:48:44.681Z,8.07
2019-01-12T03:51:13.877Z,5.53
2019-01-12T03:53:43.157Z,6.30
2019-01-12T03:56:12.328Z,5.93
2019-01-12T03:58:41.644Z,5.97
2019-01-12T04:01:10.810Z,4.57
2019-01-12T04:03:40.137Z,3.67
2019-01-12T04:06:09.357Z,3.47
2019-01-12T04:08:38.642Z,3.03
2019-01-12T04:11:07.880Z,3.00
2019-01-12T04:13:37.100Z,3.57
2019-01-12T04:16:06.275Z,4.63
2019-01-12T04:18:35.468Z,5.83
2019-01-12T04:21:04.727Z,7.50
2019-01-12T04:23:33.962Z,7.40
2019-01-12T04:26:03.220Z,7.37
2019-01-12T04:28:32.501Z,4.63
2019-01-12T04:31:01.783Z,3.83
2019-01-12T04:33:31.045Z,6.50
2019-01-12T04:36:00.207Z,5.60
2019-01-12T04:38:29.438Z,4.60
2019-01-12T04:40:58.603Z,4.30
2019-01-12T04:43:27.780Z,5.23
2019-01-12T04:45:56.949Z,6.30
2019-01-12T04:48:26.116Z,5.80
2019-01-12T04:50:55.407Z,7.07
2019-01-12T04:53:24.669Z,7.37
2019-01-12T04:55:53.936Z,6.27
2019-01-12T04:58:23.100Z,4.63
2019-01-12T05:00:52.312Z,6.73
2019-01-12T05:03:21.512Z,5.97
2019-01-12T05:05:50.796Z,4.73
2019-01-12T05:08:19.993Z,5.43
2019-01-12T05:10:49.268Z,4.97
2019-01-12T05:13:18.475Z,6.60
2019-01-12T05:15:47.674Z,4.43
2019-01-12T05:18:16.985Z,4.77
2019-01-12T05:20:46.241Z,4.70
2019-01-12T05:23:15.433Z,4.90
2019-01-12T05:25:48.845Z,3.63
2019-01-12T05:28:15.639Z,3.10
2019-01-12T05:30:44.917Z,3.70
2019-01-12T05:33:14.066Z,2.53
2019-01-12T05:35:43.243Z,3.30
2019-01-12T05:38:12.413Z,3.70
2019-01-12T05:40:41.636Z,3.33
2019-01-12T05:43:10.918Z,4.27
2019-01-12T05:45:40.060Z,3.37
2019-01-12T05:48:09.229Z,4.13
2019-01-12T05:50:38.479Z,3.70
2019-01-12T05:53:07.690Z,2.83
2019-01-12T05:55:36.886Z,3.53
2019-01-12T05:58:07.899Z,4.03
2019-01-12T06:00:37.213Z,3.90
2019-01-12T06:03:06.498Z,2.97
2019-01-12T06:05:35.676Z,3.17
2019-01-12T06:08:05.033Z,4.60
2019-01-12T06:10:34.259Z,4.90
2019-01-12T06:13:03.553Z,4.13
2019-01-12T06:15:32.809Z,5.20
2019-01-12T06:18:02.087Z,3.80
2019-01-12T06:20:31.256Z,5.07
2019-01-12T06:23:00.515Z,4.17
2019-01-12T06:25:29.689Z,4.53
2019-01-12T06:27:58.875Z,5.70
2019-01-12T06:30:28.172Z,4.00
2019-01-12T06:32:57.331Z,5.70
2019-01-12T06:35:26.581Z,5.03
2019-01-12T06:37:55.871Z,5.33
2019-01-12T06:40:25.129Z,5.07
2019-01-12T06:42:54.291Z,5.50
2019-01-12T06:45:23.525Z,5.27
2019-01-12T06:47:52.664Z,4.90
2019-01-12T06:50:21.949Z,4.93
2019-01-12T06:52:51.183Z,5.30
2019-01-12T06:55:20.514Z,5.17
2019-01-12T06:57:49.693Z,3.97
2019-01-12T07:00:20.423Z,6.20
2019-01-12T07:02:49.747Z,4.43
2019-01-12T07:05:19.031Z,4.73
2019-01-12T07:07:48.326Z,4.57
2019-01-12T07:10:17.591Z,5.07
2019-01-12T07:12:46.846Z,5.27
2019-01-12T07:15:16.155Z,4.90
2019-01-12T07:17:45.433Z,5.37
2019-01-12T07:20:16.306Z,5.10
2019-01-12T07:22:46.414Z,4.23
2019-01-12T07:25:15.712Z,4.27
2019-01-12T07:27:45.101Z,5.97
2019-01-12T07:30:25.030Z,4.63
2019-01-12T07:32:54.309Z,5.80
2019-01-12T07:35:23.584Z,3.97
2019-01-12T07:37:52.804Z,4.60
2019-01-12T07:40:22.070Z,4.63
2019-01-12T07:42:51.308Z,4.50
2019-01-12T07:45:20.805Z,5.20
2019-01-12T07:47:50.236Z,5.20
2019-01-12T07:50:19.522Z,4.90
2019-01-12T07:52:48.804Z,4.33
2019-01-12T07:55:18.109Z,3.83
2019-01-12T07:57:47.417Z,5.23
2019-01-12T08:00:21.207Z,3.93
2019-01-12T08:02:50.620Z,5.17
2019-01-12T08:05:20.882Z,4.07
2019-01-12T08:07:50.197Z,3.60
2019-01-12T08:10:27.076Z,5.00
2019-01-12T08:12:56.441Z,4.83
2019-01-12T08:15:25.710Z,4.20
2019-01-12T08:17:54.980Z,4.80
2019-01-12T08:20:24.208Z,4.93
2019-01-12T08:22:53.690Z,4.37
2019-01-12T08:25:23.228Z,4.80
2019-01-12T08:27:52.464Z,3.90
2019-01-12T08:30:21.717Z,5.30
2019-01-12T08:32:51.020Z,3.93
2019-01-12T08:35:20.248Z,4.97
2019-01-12T08:37:49.523Z,4.97
2019-01-12T08:40:18.975Z,4.10
2019-01-12T08:42:48.225Z,3.80
2019-01-12T08:45:17.504Z,4.33
2019-01-12T08:47:46.835Z,4.37
2019-01-12T08:50:20.183Z,4.53
2019-01-12T08:52:49.595Z,4.60
2019-01-12T08:55:18.813Z,4.97
2019-01-12T08:57:48.092Z,4.50
2019-01-12T09:00:21.697Z,4.60
2019-01-12T09:02:50.912Z,4.00
2019-01-12T09:05:20.257Z,5.73
2019-01-12T09:07:49.815Z,3.90
2019-01-12T09:10:20.736Z,4.37
2019-01-12T09:12:49.992Z,5.13
2019-01-12T09:15:19.327Z,4.73
2019-01-12T09:17:48.663Z,4.43
2019-01-12T09:20:17.988Z,5.27
2019-01-12T09:22:47.252Z,4.87
2019-01-12T09:25:16.725Z,4.07
2019-01-12T09:27:46.133Z,4.57
2019-01-12T09:30:18.855Z,4.50
2019-01-12T09:32:48.053Z,4.87
2019-01-12T09:35:17.456Z,5.50
2019-01-12T09:37:46.732Z,4.90
2019-01-12T09:40:17.688Z,4.63
2019-01-12T09:42:48.032Z,4.30
2019-01-12T09:45:17.755Z,4.80
2019-01-12T09:47:47.296Z,4.50
2019-01-12T09:50:18.125Z,4.17
2019-01-12T09:52:47.564Z,4.70
2019-01-12T09:55:16.876Z,4.53
2019-01-12T09:57:46.155Z,4.73
2019-01-12T10:00:24.108Z,4.73
2019-01-12T10:02:53.323Z,4.07
2019-01-12T10:05:22.585Z,4.80
2019-01-12T10:07:52.009Z,4.53
2019-01-12T10:10:21.791Z,4.20
2019-01-12T10:12:51.262Z,4.07
2019-01-12T10:15:20.487Z,4.80
2019-01-12T10:17:49.745Z,5.00
2019-01-12T10:20:20.726Z,4.63
2019-01-12T10:22:49.975Z,4.80
2019-01-12T10:25:19.265Z,5.27
2019-01-12T10:27:48.512Z,4.97
2019-01-12T10:30:22.473Z,3.33
2019-01-12T10:32:51.739Z,4.20
2019-01-12T10:35:21.175Z,8.40
2019-01-12T10:37:50.536Z,7.33
2019-01-12T10:40:20.949Z,5.77
2019-01-12T10:42:50.745Z,5.77
2019-01-12T10:45:21.694Z,4.67
2019-01-12T10:47:51.006Z,5.10
2019-01-12T10:50:37.106Z,6.43
2019-01-12T10:53:06.768Z,5.40
2019-01-12T10:55:36.054Z,5.70
2019-01-12T10:58:08.631Z,5.07
2019-01-12T11:00:38.970Z,5.17
2019-01-12T11:03:08.575Z,5.60
2019-01-12T11:05:37.916Z,3.40
2019-01-12T11:08:07.631Z,3.93
2019-01-12T11:10:37.021Z,4.40
2019-01-12T11:13:06.616Z,3.40
2019-01-12T11:15:35.824Z,3.90
2019-01-12T11:18:06.244Z,4.00
2019-01-12T11:20:35.603Z,3.67
2019-01-12T11:23:05.258Z,3.43
2019-01-12T11:25:34.549Z,3.20
2019-01-12T11:28:03.849Z,4.00
2019-01-12T11:30:33.146Z,3.70
2019-01-12T11:33:02.419Z,3.50
2019-01-12T11:35:31.694Z,3.57
2019-01-12T11:38:00.944Z,5.00
2019-01-12T11:40:30.228Z,3.87
2019-01-12T11:42:59.431Z,4.77
2019-01-12T11:45:28.747Z,4.97
2019-01-12T11:47:57.968Z,4.77
2019-01-12T11:50:27.248Z,4.47
2019-01-12T11:52:56.552Z,3.97
2019-01-12T11:55:26.075Z,3.70
2019-01-12T11:57:55.371Z,4.13
2019-01-12T12:00:26.719Z,4.07
2019-01-12T12:02:56.044Z,5.13
2019-01-12T12:05:25.464Z,4.70
2019-01-12T12:07:54.876Z,4.57
2019-01-12T12:10:24.236Z,4.97
2019-01-12T12:12:53.616Z,4.60
2019-01-12T12:15:23.786Z,4.07
2019-01-12T12:17:52.976Z,4.57
2019-01-12T12:20:24.390Z,4.07
2019-01-12T12:22:53.594Z,4.80
2019-01-12T12:25:22.825Z,4.97
2019-01-12T12:27:51.988Z,3.70
2019-01-12T12:30:29.145Z,3.87
2019-01-12T12:32:58.427Z,4.23
2019-01-12T12:35:27.761Z,3.97
2019-01-12T12:37:57.121Z,4.17
2019-01-12T12:40:26.871Z,4.17
2019-01-12T12:42:56.096Z,4.03
2019-01-12T12:45:31.027Z,3.83
2019-01-12T12:48:00.321Z,3.90
2019-01-12T12:50:29.527Z,4.90
2019-01-12T12:52:58.811Z,4.73
2019-01-12T12:55:28.168Z,3.20
2019-01-12T12:57:58.513Z,3.50
2019-01-12T13:00:30.422Z,3.63
2019-01-12T13:02:59.694Z,3.83
2019-01-12T13:05:29.061Z,3.83
2019-01-12T13:07:58.265Z,3.90
2019-01-12T13:10:30.033Z,4.47
2019-01-12T13:12:59.331Z,4.30
2019-01-12T13:15:28.608Z,4.80
2019-01-12T13:17:57.830Z,4.60
2019-01-12T13:20:27.138Z,4.43
2019-01-12T13:22:56.337Z,4.60
2019-01-12T13:25:25.573Z,3.60
2019-01-12T13:27:54.891Z,3.70
2019-01-12T13:30:26.024Z,5.33
2019-01-12T13:32:55.312Z,5.00
2019-01-12T13:35:24.627Z,4.17
2019-01-12T13:37:53.860Z,5.17
2019-01-12T13:40:25.035Z,5.10
2019-01-12T13:42:54.351Z,4.50
2019-01-12T13:45:23.775Z,4.97
2019-01-12T13:47:53.052Z,4.57
2019-01-12T13:50:24.397Z,5.17
2019-01-12T13:52:53.708Z,5.77
2019-01-12T13:55:22.993Z,5.97
2019-01-12T13:57:52.347Z,4.17
2019-01-12T14:00:33.420Z,5.27
2019-01-12T14:03:02.843Z,5.77
2019-01-12T14:05:32.135Z,5.83
2019-01-12T14:08:01.749Z,4.87
2019-01-12T14:10:30.999Z,5.87
2019-01-12T14:13:00.271Z,5.27
2019-01-12T14:15:29.587Z,5.73
2019-01-12T14:17:58.988Z,5.50
2019-01-12T14:20:30.869Z,5.20
2019-01-12T14:23:00.129Z,4.77
2019-01-12T14:25:29.408Z,6.40
2019-01-12T14:27:58.722Z,4.27
2019-01-12T14:30:28.005Z,4.93
2019-01-12T14:32:57.243Z,5.83
2019-01-12T14:35:26.473Z,3.73
2019-01-12T14:37:55.804Z,4.70
2019-01-12T14:40:25.113Z,4.40
2019-01-12T14:42:54.352Z,5.77
2019-01-12T14:45:32.444Z,5.87
2019-01-12T14:48:02.062Z,5.27
2019-01-12T14:50:31.387Z,4.13
2019-01-12T14:53:00.634Z,5.87
2019-01-12T14:55:29.918Z,4.40
2019-01-12T14:58:02.601Z,5.03
2019-01-12T15:00:30.292Z,4.30
2019-01-12T15:02:59.650Z,4.07
2019-01-12T15:05:30.981Z,4.70
2019-01-12T15:08:00.300Z,4.30
2019-01-12T15:10:29.752Z,3.90
2019-01-12T15:12:59.072Z,5.30
2019-01-12T15:15:28.429Z,7.60
2019-01-12T15:17:57.722Z,8.60
2019-01-12T15:20:30.702Z,7.77
2019-01-12T15:23:00.166Z,5.43
2019-01-12T15:25:29.501Z,4.67
2019-01-12T15:27:58.728Z,5.00
2019-01-12T15:30:29.793Z,4.23
2019-01-12T15:33:00.111Z,3.60
2019-01-12T15:35:31.342Z,5.03
2019-01-12T15:38:00.658Z,4.33
2019-01-12T15:40:29.998Z,3.90
2019-01-12T15:42:59.187Z,4.00
2019-01-12T15:45:29.639Z,4.70
2019-01-12T15:47:58.972Z,4.40
2019-01-12T15:50:28.471Z,4.10
2019-01-12T15:52:57.789Z,4.43
2019-01-12T15:55:27.073Z,3.10
2019-01-12T15:57:56.398Z,2.90
2019-01-12T16:00:28.460Z,2.73
2019-01-12T16:02:58.090Z,3.00
2019-01-12T16:05:28.218Z,2.90
2019-01-12T16:07:57.428Z,3.60
2019-01-12T16:10:26.754Z,3.43
2019-01-12T16:12:55.944Z,3.40
2019-01-12T16:15:27.055Z,3.30
2019-01-12T16:17:56.724Z,3.40
2019-01-12T16:20:51.054Z,3.77
2019-01-12T16:23:20.334Z,3.30
2019-01-12T16:25:49.552Z,3.10
2019-01-12T16:28:23.189Z,4.20
2019-01-12T16:30:49.876Z,3.53
2019-01-12T16:33:19.196Z,3.67
2019-01-12T16:35:48.440Z,4.20
2019-01-12T16:38:17.662Z,4.30
2019-01-12T16:40:47.064Z,4.90
2019-01-12T16:43:16.341Z,4.57
2019-01-12T16:45:45.984Z,4.40
2019-01-12T16:48:15.327Z,4.57
2019-01-12T16:50:44.611Z,5.03
2019-01-12T16:53:13.929Z,4.73
2019-01-12T16:55:43.202Z,4.80
2019-01-12T16:58:12.515Z,4.07
2019-01-12T17:00:41.815Z,3.80
2019-01-12T17:03:11.079Z,3.57
2019-01-12T17:05:40.382Z,3.13
2019-01-12T17:08:09.663Z,3.70
2019-01-12T17:10:38.859Z,3.53
2019-01-12T17:13:08.127Z,4.17
2019-01-12T17:15:37.333Z,3.80
2019-01-12T17:18:06.594Z,4.23
2019-01-12T17:20:35.942Z,4.07
2019-01-12T17:23:06.835Z,3.80
2019-01-12T17:25:36.424Z,3.37
2019-01-12T17:28:05.831Z,2.47
2019-01-12T17:30:35.127Z,2.70
2019-01-12T17:33:04.440Z,2.60
2019-01-12T17:35:33.763Z,2.70
2019-01-12T17:38:04.511Z,2.40
2019-01-12T17:40:33.889Z,2.70
2019-01-12T17:43:03.258Z,2.23
2019-01-12T17:45:32.589Z,2.83
2019-01-12T17:48:01.918Z,2.50
2019-01-12T17:50:31.249Z,3.07
2019-01-12T17:53:00.561Z,2.80
2019-01-12T17:55:29.995Z,3.10
2019-01-12T17:57:59.431Z,2.40
2019-01-12T18:00:50.114Z,2.70
2019-01-12T18:03:19.373Z,2.10
2019-01-12T18:05:48.622Z,2.40
2019-01-12T18:08:18.006Z,2.83
2019-01-12T18:10:47.333Z,2.13
2019-01-12T18:13:16.760Z,2.17
2019-01-12T18:15:46.263Z,2.30
2019-01-12T18:18:15.448Z,1.80
2019-01-12T18:20:44.769Z,2.60
2019-01-12T18:23:14.092Z,2.03
2019-01-12T18:25:43.328Z,1.90
2019-01-12T18:28:12.623Z,2.10
2019-01-12T18:30:41.901Z,1.90
2019-01-12T18:33:11.040Z,1.90
2019-01-12T18:35:40.367Z,2.00
2019-01-12T18:38:09.606Z,1.63
2019-01-12T18:40:38.937Z,1.73
2019-01-12T18:43:08.268Z,2.00
2019-01-12T18:45:37.566Z,1.70
2019-01-12T18:48:06.886Z,1.60
2019-01-12T18:50:36.530Z,1.80
2019-01-12T18:53:05.848Z,1.77
2019-01-12T18:55:35.189Z,2.20
2019-01-12T18:58:04.583Z,2.33
2019-01-12T19:00:33.912Z,2.70
2019-01-12T19:03:03.208Z,2.30
2019-01-12T19:05:32.793Z,4.67
2019-01-12T19:08:02.069Z,1.83
2019-01-12T19:10:31.376Z,1.50
2019-01-12T19:13:00.656Z,1.73
2019-01-12T19:15:31.306Z,1.50
2019-01-12T19:18:00.728Z,2.20
2019-01-12T19:20:30.044Z,1.77
2019-01-12T19:22:59.343Z,1.83
2019-01-12T19:25:28.622Z,1.80
2019-01-12T19:27:57.899Z,1.67
2019-01-12T19:30:27.155Z,1.87
2019-01-12T19:32:56.498Z,1.43
2019-01-12T19:35:25.884Z,1.50
2019-01-12T19:37:55.237Z,1.60
2019-01-12T19:40:25.762Z,1.47
2019-01-12T19:42:55.096Z,1.80
2019-01-12T19:45:24.388Z,2.07
2019-01-12T19:47:53.654Z,1.20
2019-01-12T19:50:24.784Z,1.27
2019-01-12T19:52:54.191Z,1.40
2019-01-12T19:55:23.471Z,1.20
2019-01-12T19:57:52.816Z,1.30
2019-01-12T20:00:28.857Z,2.03
2019-01-12T20:02:58.705Z,1.20
2019-01-12T20:05:28.014Z,1.30
2019-01-12T20:07:57.444Z,1.10
2019-01-12T20:10:27.151Z,0.73
2019-01-12T20:12:56.525Z,0.80
2019-01-12T20:15:26.117Z,1.50
2019-01-12T20:17:55.424Z,4.10
2019-01-12T20:20:25.041Z,1.93
2019-01-12T20:22:54.411Z,1.00
2019-01-12T20:25:30.834Z,1.20
2019-01-12T20:28:08.320Z,0.80
2019-01-12T20:31:24.666Z,0.90
2019-01-12T20:34:08.857Z,0.90
2019-01-12T20:37:16.358Z,0.80
2019-01-12T20:40:01.291Z,0.80
2019-01-12T20:43:00.968Z,0.70
2019-01-12T20:46:17.655Z,2.27
2019-01-12T20:49:17.379Z,1.13
2019-01-12T20:52:24.853Z,3.40
2019-01-12T20:55:23.218Z,1.33
2019-01-12T20:58:23.352Z,0.80
2019-01-12T21:01:23.708Z,1.13
2019-01-12T21:04:20.618Z,1.10
2019-01-12T21:07:28.047Z,0.90
2019-01-12T21:10:29.494Z,0.50
2019-01-12T21:13:52.079Z,0.80
2019-01-12T21:16:28.740Z,0.63
2019-01-12T21:18:58.111Z,0.70
2019-01-12T21:21:27.538Z,0.70
2019-01-12T21:23:56.851Z,0.60
2019-01-12T21:26:26.242Z,0.80
2019-01-12T21:28:55.462Z,1.23
2019-01-12T21:31:24.766Z,1.20
2019-01-12T21:33:54.210Z,0.77
2019-01-12T21:36:23.593Z,0.70
2019-01-12T21:38:52.915Z,1.20
2019-01-12T21:41:22.166Z,0.87
2019-01-12T21:43:51.411Z,0.80
2019-01-12T21:46:20.678Z,0.87
2019-01-12T21:48:50.598Z,0.60
2019-01-12T21:51:19.927Z,0.90
2019-01-12T21:53:49.216Z,0.70
2019-01-12T21:56:18.499Z,0.90
2019-01-12T21:58:47.770Z,1.10
2019-01-12T22:01:18.415Z,0.70
2019-01-12T22:03:47.901Z,1.37
2019-01-12T22:06:17.154Z,0.87
2019-01-12T22:08:46.458Z,0.80
2019-01-12T22:11:15.781Z,1.07
2019-01-12T22:13:44.976Z,0.73
2019-01-12T22:16:14.209Z,1.10
2019-01-12T22:18:43.556Z,1.20
2019-01-12T22:21:12.803Z,0.80
2019-01-12T22:23:42.005Z,0.80
2019-01-12T22:26:11.185Z,0.93
2019-01-12T22:28:40.498Z,0.67
2019-01-12T22:31:09.785Z,0.80
2019-01-12T22:33:39.084Z,0.70
2019-01-12T22:36:08.397Z,0.90
2019-01-12T22:38:38.225Z,0.70
2019-01-12T22:41:07.467Z,0.90
2019-01-12T22:43:36.781Z,0.77
2019-01-12T22:46:06.075Z,0.73
2019-01-12T22:48:35.405Z,0.67
2019-01-12T22:51:04.704Z,0.70
2019-01-12T22:53:34.217Z,0.83
2019-01-12T22:56:03.600Z,0.93
2019-01-12T22:58:32.829Z,0.90
2019-01-12T23:01:35.409Z,0.90
2019-01-12T23:04:05.020Z,1.80
2019-01-12T23:06:34.433Z,0.70
2019-01-12T23:09:05.251Z,0.90
2019-01-12T23:11:34.458Z,1.20
2019-01-12T23:14:04.090Z,0.90
2019-01-12T23:16:35.252Z,0.60
2019-01-12T23:19:04.874Z,0.83
2019-01-12T23:21:34.179Z,0.97
2019-01-12T23:24:03.406Z,1.50
2019-01-12T23:26:32.670Z,1.27
2019-01-12T23:29:01.873Z,0.60
2019-01-12T23:31:31.056Z,0.80
2019-01-12T23:34:00.313Z,0.50
2019-01-12T23:36:29.624Z,0.50
2019-01-12T23:38:58.942Z,0.50
2019-01-12T23:41:28.521Z,0.77
2019-01-12T23:43:57.850Z,0.60
2019-01-12T23:46:27.094Z,0.70
2019-01-12T23:48:56.320Z,0.60
2019-01-12T23:51:25.573Z,0.53
2019-01-12T23:53:54.823Z,0.50
2019-01-12T23:56:24.090Z,0.70
2019-01-12T23:58:53.348Z,0.47
